Time;durP1;ratioP1;P1;durP2;ratioP2;P2;SDS_P1;SDS_P2;PMS_P1;PMS_P2;Temp;Humidity;BMP_temperature;BMP_pressure;BME280_temperature;BME280_humidity;BME280_pressure;Samples;Min_cycle;Max_cycle;Signal;HPM_P1;HPM_P2
2022/06/29 00:00:08;;;;;;;0.40;0.20;;;;;;;20.85;77.10;100107.38;5052736;28;20469;-54
2022/06/29 00:02:35;;;;;;;0.40;0.20;;;;;;;20.65;78.74;100110.69;5052083;28;20474;-54
2022/06/29 00:05:03;;;;;;;0.40;0.20;;;;;;;20.61;78.49;100107.34;5052452;28;20447;-53
2022/06/29 00:07:30;;;;;;;0.40;0.20;;;;;;;20.53;79.46;100103.47;5052625;28;20461;-54
2022/06/29 00:09:57;;;;;;;0.40;0.20;;;;;;;20.65;79.45;100108.84;5052197;28;20454;-54
2022/06/29 00:12:23;;;;;;;0.40;0.20;;;;;;;20.48;79.73;100101.13;5050964;28;20475;-53
2022/06/29 00:14:50;;;;;;;0.40;0.20;;;;;;;20.45;80.11;100097.78;5051792;28;20486;-54
2022/06/29 00:17:17;;;;;;;0.40;0.20;;;;;;;20.34;81.19;100096.69;5052392;28;20450;-53
2022/06/29 00:19:43;;;;;;;0.40;0.20;;;;;;;20.46;79.80;100088.72;5045474;28;20450;-54
2022/06/29 00:22:10;;;;;;;0.40;0.20;;;;;;;20.25;81.80;100088.38;5045697;28;20446;-54
2022/06/29 00:24:37;;;;;;;0.40;0.20;;;;;;;20.31;81.24;100090.66;5042653;28;20855;-54
2022/06/29 00:27:04;;;;;;;0.40;0.20;;;;;;;20.18;81.42;100095.19;5038391;28;20459;-54
2022/06/29 00:29:30;;;;;;;0.40;0.20;;;;;;;20.19;80.80;100095.09;5051964;28;20455;-54
2022/06/29 00:31:57;;;;;;;0.40;0.20;;;;;;;20.25;81.77;100091.06;5052039;28;20447;-54
2022/06/29 00:34:23;;;;;;;0.40;0.20;;;;;;;20.20;82.52;100098.66;5052034;28;20824;-53
2022/06/29 00:36:50;;;;;;;0.40;0.20;;;;;;;19.95;82.85;100083.31;5052087;28;20468;-54
2022/06/29 00:39:16;;;;;;;1.53;0.80;;;;;;;19.90;83.69;100091.75;5052262;28;20451;-54
2022/06/29 00:41:45;;;;;;;0.50;0.20;;;;;;;19.83;84.62;100093.16;5052041;28;20457;-53
2022/06/29 00:44:17;;;;;;;0.40;0.20;;;;;;;19.83;84.61;100094.00;5051409;28;20474;-54
2022/06/29 00:46:51;;;;;;;0.40;0.20;;;;;;;19.70;86.58;100092.28;5051982;28;20453;-54
2022/06/29 00:49:20;;;;;;;0.40;0.20;;;;;;;19.77;85.77;100094.44;5052048;28;20457;-54
2022/06/29 00:51:49;;;;;;;0.40;0.20;;;;;;;19.79;85.37;100095.19;5051978;28;20451;-53
2022/06/29 00:54:19;;;;;;;0.40;0.30;;;;;;;19.92;83.73;100091.66;5048659;28;20498;-53
2022/06/29 00:56:46;;;;;;;0.40;0.20;;;;;;;19.85;84.42;100093.91;5051671;28;20442;-53
2022/06/29 00:59:18;;;;;;;0.40;0.20;;;;;;;19.96;83.77;100090.44;5051941;28;20446;-54
2022/06/29 01:01:44;;;;;;;0.40;0.20;;;;;;;20.00;83.64;100091.94;5051920;28;20439;-54
2022/06/29 01:04:11;;;;;;;0.40;0.20;;;;;;;19.93;84.43;100087.97;5051673;28;20475;-54
2022/06/29 01:06:38;;;;;;;0.40;0.20;;;;;;;19.89;84.45;100092.72;5038135;28;20932;-53
2022/06/29 01:09:05;;;;;;;0.40;0.20;;;;;;;19.93;84.31;100083.44;5053100;28;20991;-54
2022/06/29 01:11:33;;;;;;;0.40;0.20;;;;;;;20.06;83.43;100084.31;5055445;28;20454;-54
2022/06/29 01:14:00;;;;;;;0.40;0.20;;;;;;;20.16;82.46;100081.81;5055344;28;20579;-54
2022/06/29 01:16:27;;;;;;;0.40;0.20;;;;;;;20.10;83.16;100083.09;5049599;28;20967;-54
2022/06/29 01:18:54;;;;;;;0.40;0.30;;;;;;;20.12;83.59;100080.28;5047960;28;20451;-54
2022/06/29 01:21:21;;;;;;;0.40;0.20;;;;;;;20.18;82.78;100081.69;5042290;28;20978;-54
2022/06/29 01:23:47;;;;;;;0.40;0.20;;;;;;;20.17;82.09;100080.84;5045309;28;21013;-54
2022/06/29 01:26:14;;;;;;;0.40;0.30;;;;;;;20.22;83.32;100083.19;5052547;28;20451;-54
2022/06/29 01:28:46;;;;;;;0.40;0.20;;;;;;;20.20;83.90;100083.31;5049181;28;20458;-54
2022/06/29 01:31:17;;;;;;;0.40;0.20;;;;;;;19.90;85.16;100088.19;5055562;28;20447;-54
2022/06/29 01:33:47;;;;;;;0.40;0.20;;;;;;;19.96;86.64;100091.31;5054876;28;21022;-54
2022/06/29 01:36:16;;;;;;;0.40;0.20;;;;;;;20.05;85.48;100084.41;5055098;28;20472;-54
2022/06/29 01:38:42;;;;;;;0.40;0.20;;;;;;;20.09;85.41;100077.81;5053584;28;20454;-54
2022/06/29 01:41:10;;;;;;;0.40;0.20;;;;;;;20.17;85.02;100079.97;5055051;28;20974;-54
2022/06/29 01:43:40;;;;;;;0.40;0.20;;;;;;;20.28;84.39;100082.75;5054802;28;20797;-54
2022/06/29 01:46:07;;;;;;;0.40;0.20;;;;;;;20.27;82.53;100070.22;5055180;28;20455;-54
2022/06/29 01:48:34;;;;;;;0.40;0.20;;;;;;;20.20;83.71;100074.34;5054802;28;20834;-53
2022/06/29 01:51:00;;;;;;;0.40;0.20;;;;;;;20.25;83.23;100069.47;5054540;28;20454;-54
2022/06/29 01:53:27;;;;;;;0.40;0.20;;;;;;;20.32;81.56;100076.16;5052131;28;20558;-53
2022/06/29 01:55:54;;;;;;;1.43;1.33;;;;;;;20.27;81.59;100067.53;5054904;28;20490;-54
2022/06/29 01:58:21;;;;;;;0.40;0.20;;;;;;;20.31;82.52;100064.50;5054950;28;20450;-54
2022/06/29 02:00:47;;;;;;;0.40;0.20;;;;;;;20.31;83.08;100058.25;5054621;28;20451;-54
2022/06/29 02:03:14;;;;;;;0.40;0.20;;;;;;;20.05;85.64;100060.13;5054395;28;20471;-54
2022/06/29 02:05:41;;;;;;;0.40;0.20;;;;;;;20.12;86.38;100050.59;5054751;28;20446;-53
2022/06/29 02:08:07;;;;;;;0.40;0.20;;;;;;;20.19;85.88;100053.72;5054401;28;20447;-54
2022/06/29 02:10:34;;;;;;;0.40;0.20;;;;;;;20.13;87.33;100052.31;5054758;28;20447;-54
2022/06/29 02:13:01;;;;;;;0.40;0.20;;;;;;;20.27;86.94;100048.63;5054401;28;20474;-54
2022/06/29 02:15:27;;;;;;;0.40;0.20;;;;;;;20.27;86.75;100046.78;5054255;28;21002;-54
2022/06/29 02:17:54;;;;;;;0.40;0.20;;;;;;;20.26;86.88;100036.09;5054484;28;20454;-53
2022/06/29 02:20:21;;;;;;;0.40;0.20;;;;;;;20.30;85.84;100040.31;5041929;28;20444;-53
2022/06/29 02:22:47;;;;;;;0.40;0.20;;;;;;;20.30;85.82;100032.22;5051632;28;20600;-53
2022/06/29 02:25:13;;;;;;;0.40;0.20;;;;;;;20.25;86.20;100031.69;5046256;28;20818;-53
2022/06/29 02:27:47;;;;;;;0.40;0.20;;;;;;;20.27;85.53;100027.88;5044480;28;20461;-54
2022/06/29 02:30:14;;;;;;;0.40;0.20;;;;;;;20.21;87.34;100032.88;5054362;28;20461;-53
2022/06/29 02:35:28;;;;;;;0.40;0.20;;;;;;;20.27;84.80;100025.19;5054054;28;20494;-54
2022/06/29 02:37:55;;;;;;;1.30;1.20;;;;;;;20.25;84.44;100024.44;5054260;28;20493;-53
2022/06/29 02:40:22;;;;;;;0.40;0.20;;;;;;;20.25;83.01;100028.97;5053918;28;20473;-53
2022/06/29 02:42:48;;;;;;;0.40;0.20;;;;;;;20.23;84.02;100041.72;5054189;28;20487;-54
2022/06/29 02:45:30;;;;;;;0.40;0.20;;;;;;;20.22;85.29;100037.31;5053533;28;20450;-53
2022/06/29 02:47:56;;;;;;;0.40;0.20;;;;;;;20.22;84.81;100042.72;5053955;28;20451;-53
2022/06/29 02:50:23;;;;;;;0.40;0.20;;;;;;;20.25;84.93;100046.03;5053905;28;20457;-53
2022/06/29 02:52:49;;;;;;;0.40;0.20;;;;;;;20.36;83.38;100043.44;5051798;28;21063;-54
2022/06/29 02:55:16;;;;;;;0.40;0.20;;;;;;;20.29;83.71;100038.59;5052039;28;20491;-54
2022/06/29 02:57:42;;;;;;;0.40;0.20;;;;;;;20.30;86.09;100041.19;5053554;28;21018;-54
2022/06/29 03:00:10;;;;;;;0.40;0.20;;;;;;;20.38;86.34;100046.00;5053307;28;20940;-53
2022/06/29 03:02:36;;;;;;;0.40;0.20;;;;;;;20.41;85.22;100034.97;5052579;28;20463;-54
2022/06/29 03:05:03;;;;;;;0.40;0.20;;;;;;;20.31;84.79;100031.25;5053670;28;20447;-53
2022/06/29 03:07:29;;;;;;;0.40;0.20;;;;;;;20.31;85.27;100031.25;5053655;28;20458;-53
2022/06/29 03:09:56;;;;;;;0.40;0.20;;;;;;;19.97;87.31;100024.72;5047624;28;20457;-54
2022/06/29 03:12:22;;;;;;;0.40;0.20;;;;;;;20.13;85.62;100026.19;5045707;28;20968;-55
2022/06/29 03:14:49;;;;;;;0.40;0.20;;;;;;;20.23;85.96;100021.00;5053754;28;20513;-54
2022/06/29 03:17:15;;;;;;;0.40;0.20;;;;;;;20.17;86.79;100021.47;5053424;28;20464;-53
2022/06/29 03:19:42;;;;;;;0.40;0.20;;;;;;;20.21;87.99;100040.97;5046793;28;20452;-53
2022/06/29 03:22:08;;;;;;;0.40;0.20;;;;;;;20.21;86.59;100039.16;5046575;28;21016;-54
2022/06/29 03:24:35;;;;;;;0.40;0.20;;;;;;;20.36;84.78;100024.53;5036017;28;20451;-54
2022/06/29 03:27:02;;;;;;;0.40;0.20;;;;;;;20.35;83.75;100028.19;5043423;28;20455;-54
2022/06/29 03:29:28;;;;;;;0.40;0.20;;;;;;;20.36;84.22;100021.81;5053024;28;20961;-53
2022/06/29 03:31:55;;;;;;;0.40;0.20;;;;;;;20.49;83.37;100023.66;5052247;28;20459;-54
2022/06/29 03:34:21;;;;;;;0.40;0.30;;;;;;;20.31;85.70;100024.00;5052819;28;20540;-54
2022/06/29 03:36:48;;;;;;;0.40;0.20;;;;;;;20.23;87.07;100020.13;5053041;28;20451;-53
2022/06/29 03:39:14;;;;;;;0.40;0.20;;;;;;;20.23;87.38;100026.41;5053104;28;20446;-53
2022/06/29 03:41:41;;;;;;;0.40;0.20;;;;;;;20.10;87.98;100028.25;5052673;28;20446;-54
2022/06/29 03:44:08;;;;;;;0.40;0.20;;;;;;;20.18;87.12;100017.78;5052575;28;20932;-53
2022/06/29 03:46:34;;;;;;;0.40;0.20;;;;;;;20.34;88.31;100014.81;5052622;28;20461;-53
2022/06/29 03:49:01;;;;;;;0.40;0.20;;;;;;;20.21;89.44;100028.34;5052692;28;20454;-53
2022/06/29 03:51:27;;;;;;;0.40;0.20;;;;;;;20.08;90.44;100025.69;5052312;28;20455;-53
2022/06/29 03:53:54;;;;;;;0.40;0.20;;;;;;;20.11;90.28;100025.44;5048913;28;20505;-53
2022/06/29 03:56:21;;;;;;;0.40;0.20;;;;;;;20.10;90.50;100023.72;5052302;28;21003;-53
2022/06/29 03:58:47;;;;;;;0.40;0.30;;;;;;;20.24;91.16;100017.31;5052665;28;20447;-54
2022/06/29 04:01:14;;;;;;;0.40;0.20;;;;;;;20.03;93.11;100021.59;5052300;28;20451;-54
2022/06/29 04:03:40;;;;;;;0.40;0.20;;;;;;;20.03;93.17;100027.84;5052415;28;20509;-54
2022/06/29 04:06:07;;;;;;;0.40;0.20;;;;;;;20.10;91.88;100029.13;5038766;28;20439;-53
2022/06/29 04:08:35;;;;;;;1.07;1.07;;;;;;;20.06;92.41;100033.03;5052662;28;20505;-53
2022/06/29 04:11:02;;;;;;;0.40;0.20;;;;;;;20.16;91.64;100024.28;5051747;28;20947;-53
2022/06/29 04:13:34;;;;;;;0.40;0.20;;;;;;;20.18;90.36;100023.19;5040356;28;21042;-54
2022/06/29 04:16:01;;;;;;;0.40;0.20;;;;;;;20.23;89.67;100014.75;5052063;28;20501;-54
2022/06/29 04:18:27;;;;;;;0.40;0.20;;;;;;;20.22;91.36;100016.56;5052086;28;20912;-53
2022/06/29 04:21:06;;;;;;;0.40;0.20;;;;;;;20.22;90.98;100015.72;5038499;28;20439;-54
2022/06/29 04:23:32;;;;;;;0.40;0.20;;;;;;;20.28;91.93;100026.91;5044580;28;20578;-54
2022/06/29 04:25:58;;;;;;;0.40;0.20;;;;;;;20.36;91.46;100026.38;5049242;28;20449;-53
2022/06/29 04:28:25;;;;;;;0.40;0.20;;;;;;;20.29;92.18;100023.28;5043831;28;20529;-53
2022/06/29 04:30:51;;;;;;;0.40;0.20;;;;;;;20.78;86.60;100021.50;5051609;28;20962;-54
2022/06/29 04:33:18;;;;;;;0.40;0.20;;;;;;;20.48;87.84;100030.03;5051670;28;20475;-54
2022/06/29 04:35:44;;;;;;;0.40;0.20;;;;;;;20.48;87.31;100022.81;5052039;28;20491;-54
2022/06/29 04:38:11;;;;;;;0.40;0.20;;;;;;;20.41;85.63;100021.47;5052255;28;20464;-54
2022/06/29 04:40:38;;;;;;;0.40;0.20;;;;;;;20.46;86.82;100013.09;5051715;28;20451;-54
2022/06/29 04:43:04;;;;;;;0.40;0.20;;;;;;;20.38;84.96;100017.19;5052182;28;20481;-54
2022/06/29 04:48:16;;;;;;;0.40;0.20;;;;;;;20.58;83.50;100023.00;5058717;28;20847;-54
2022/06/29 04:50:42;;;;;;;0.40;0.20;;;;;;;20.57;83.67;100024.81;5058706;28;20541;-54
2022/06/29 04:53:09;;;;;;;0.40;0.30;;;;;;;20.45;84.66;100014.06;5055209;28;20515;-54
2022/06/29 04:55:36;;;;;;;0.40;0.20;;;;;;;20.48;83.50;100016.53;5058317;28;20564;-54
2022/06/29 04:58:02;;;;;;;0.40;0.20;;;;;;;20.50;84.67;100014.59;5058330;28;20456;-54
2022/06/29 05:00:28;;;;;;;0.40;0.20;;;;;;;20.34;85.91;100007.59;5058282;28;20811;-54
2022/06/29 05:02:55;;;;;;;0.40;0.20;;;;;;;20.40;86.25;100009.81;5058133;28;21017;-54
2022/06/29 05:05:22;;;;;;;0.40;0.20;;;;;;;20.37;86.07;100015.44;5058554;28;20443;-53
2022/06/29 05:07:48;;;;;;;0.40;0.20;;;;;;;20.36;85.50;100010.16;5057989;28;20454;-54
2022/06/29 05:10:15;;;;;;;0.40;0.20;;;;;;;20.40;85.28;100009.81;5058217;28;20447;-54
2022/06/29 05:12:42;;;;;;;0.40;0.20;;;;;;;20.47;86.22;100004.88;5057962;28;20470;-54
2022/06/29 05:15:09;;;;;;;0.40;0.20;;;;;;;20.86;81.39;100008.28;5058424;28;20514;-54
2022/06/29 05:17:37;;;;;;;0.40;0.20;;;;;;;21.08;79.10;100002.94;5058115;28;20450;-54
2022/06/29 05:20:05;;;;;;;0.40;0.20;;;;;;;20.80;81.02;100000.63;5048591;28;20810;-53
2022/06/29 05:22:32;;;;;;;0.40;0.20;;;;;;;20.92;81.82;99994.28;5054988;28;20484;-54
2022/06/29 05:24:58;;;;;;;0.40;0.20;;;;;;;21.21;80.27;99987.50;5048806;28;20461;-54
2022/06/29 05:27:25;;;;;;;0.40;0.20;;;;;;;20.85;81.79;99991.19;5048093;28;20959;-54
2022/06/29 05:29:51;;;;;;;0.40;0.20;;;;;;;20.82;81.81;99986.00;5058438;28;20450;-54
2022/06/29 05:32:18;;;;;;;0.40;0.20;;;;;;;20.90;80.82;99990.84;5058120;28;20466;-54
2022/06/29 05:34:44;;;;;;;0.40;0.20;;;;;;;21.05;81.74;99989.66;5048028;28;20958;-54
2022/06/29 05:37:11;;;;;;;0.40;0.20;;;;;;;21.09;83.10;99992.97;5054830;28;20447;-54
2022/06/29 05:39:37;;;;;;;0.40;0.20;;;;;;;21.37;82.42;99992.59;5058222;28;20450;-54
2022/06/29 05:42:04;;;;;;;0.40;0.20;;;;;;;21.50;81.80;99989.78;5057640;28;20455;-55
2022/06/29 05:44:30;;;;;;;0.40;0.20;;;;;;;21.37;82.57;99995.31;5057871;28;20451;-54
2022/06/29 05:46:57;;;;;;;0.40;0.20;;;;;;;21.36;78.52;99993.59;5058225;28;20450;-54
2022/06/29 05:49:23;;;;;;;0.40;0.20;;;;;;;21.47;78.81;100001.72;5058093;28;20447;-54
2022/06/29 05:51:50;;;;;;;0.40;0.20;;;;;;;21.93;76.77;99991.78;5044624;28;20447;-54
2022/06/29 05:54:16;;;;;;;0.40;0.20;;;;;;;21.69;76.35;99989.22;5044045;28;20497;-54
2022/06/29 05:56:42;;;;;;;0.40;0.20;;;;;;;21.96;75.46;99986.16;5051126;28;20486;-54
2022/06/29 05:59:09;;;;;;;0.40;0.20;;;;;;;21.82;76.23;99988.13;5054701;28;20962;-54
2022/06/29 06:01:36;;;;;;;0.40;0.20;;;;;;;21.92;76.25;99990.06;5054920;28;20461;-54
2022/06/29 06:04:03;;;;;;;0.40;0.20;;;;;;;21.93;77.61;99986.38;5054528;28;20485;-54
2022/06/29 06:06:29;;;;;;;0.40;0.20;;;;;;;22.13;72.75;99983.81;5054529;28;20466;-54
2022/06/29 06:08:56;;;;;;;0.40;0.20;;;;;;;22.06;74.69;99981.72;5054543;28;20451;-54
2022/06/29 06:11:22;;;;;;;1.50;1.40;;;;;;;22.53;72.43;99987.81;5054342;28;20451;-54
2022/06/29 06:13:49;;;;;;;0.40;0.20;;;;;;;22.77;70.71;99991.19;5054144;28;20486;-54
2022/06/29 06:16:15;;;;;;;0.40;0.30;;;;;;;22.73;71.76;99998.69;5054545;28;20492;-54
2022/06/29 06:19:02;;;;;;;0.40;0.20;;;;;;;22.61;72.49;99988.00;5053187;28;20446;-54
2022/06/29 06:21:28;;;;;;;0.40;0.20;;;;;;;23.14;69.17;99991.66;5042501;28;20446;-54
2022/06/29 06:23:55;;;;;;;0.40;0.20;;;;;;;23.34;67.77;99990.81;5044462;28;20555;-54
2022/06/29 06:26:21;;;;;;;0.40;0.20;;;;;;;23.11;69.03;99991.91;5050454;28;20455;-54
2022/06/29 06:28:50;;;;;;;0.40;0.20;;;;;;;22.89;71.98;99992.91;5048891;28;20453;-54
2022/06/29 06:31:22;;;;;;;0.40;0.20;;;;;;;23.31;70.82;99995.66;5054181;28;20443;-54
2022/06/29 06:33:48;;;;;;;0.40;0.30;;;;;;;23.53;68.47;99995.50;5054401;28;20520;-54
2022/06/29 06:36:15;;;;;;;0.40;0.20;;;;;;;23.50;67.95;99997.63;5052806;28;20954;-54
2022/06/29 06:38:41;;;;;;;0.40;0.20;;;;;;;23.83;67.42;99991.09;5054713;28;20451;-54
2022/06/29 06:41:24;;;;;;;0.97;0.97;;;;;;;23.65;66.33;99993.59;5053140;28;20447;-54
2022/06/29 06:43:53;;;;;;;0.40;0.20;;;;;;;24.05;64.34;100001.78;5053777;28;20471;-55
2022/06/29 06:46:20;;;;;;;0.40;0.20;;;;;;;24.22;63.34;99998.41;5054237;28;20521;-54
2022/06/29 06:48:50;;;;;;;0.40;0.20;;;;;;;24.67;62.68;100010.69;5053683;28;20455;-54
2022/06/29 06:51:21;;;;;;;0.40;0.20;;;;;;;24.78;61.77;99997.84;5054150;28;20435;-54
2022/06/29 06:53:48;;;;;;;0.40;0.20;;;;;;;24.64;60.88;100002.81;5030847;28;20506;-54
2022/06/29 06:56:15;;;;;;;0.40;0.20;;;;;;;24.74;61.42;100010.00;5053321;28;21000;-54
2022/06/29 06:58:42;;;;;;;0.40;0.20;;;;;;;25.06;61.31;100007.03;5046700;28;20547;-54
2022/06/29 07:01:18;;;;;;;0.40;0.30;;;;;;;25.24;60.43;100012.63;5048889;28;20454;-54
2022/06/29 07:03:45;;;;;;;0.40;0.20;;;;;;;25.78;59.17;100002.97;5053204;28;20473;-55
2022/06/29 07:06:12;;;;;;;0.40;0.20;;;;;;;25.67;57.35;100003.09;5053261;28;21005;-55
2022/06/29 07:08:39;;;;;;;0.40;0.20;;;;;;;25.89;59.03;100002.75;5053650;28;20496;-55
2022/06/29 07:11:07;;;;;;;0.40;0.20;;;;;;;25.93;56.85;99993.31;5053360;28;20541;-55
2022/06/29 07:13:34;;;;;;;0.40;0.20;;;;;;;26.08;57.19;99996.38;5053468;28;20513;-55
2022/06/29 07:16:03;;;;;;;0.40;0.20;;;;;;;25.88;57.95;99995.59;5053247;28;20490;-55
2022/06/29 07:18:31;;;;;;;0.40;0.20;;;;;;;25.78;56.84;99992.06;5053561;28;20529;-55
2022/06/29 07:20:58;;;;;;;0.40;0.30;;;;;;;25.69;53.21;99992.94;5039932;28;20453;-55
2022/06/29 07:23:24;;;;;;;0.40;0.20;;;;;;;25.23;54.83;100000.03;5046845;28;20449;-54
2022/06/29 07:25:51;;;;;;;0.53;0.47;;;;;;;24.91;56.58;100002.13;5049893;28;20954;-54
2022/06/29 07:28:17;;;;;;;0.40;0.20;;;;;;;24.77;55.98;100006.13;5043576;28;20451;-54
2022/06/29 07:30:43;;;;;;;0.40;0.20;;;;;;;24.75;56.66;99998.13;5039686;28;20461;-55
2022/06/29 07:33:10;;;;;;;2.87;1.17;;;;;;;25.06;55.97;100003.47;5053345;28;20582;-55
2022/06/29 07:35:38;;;;;;;0.40;0.30;;;;;;;24.64;57.50;100008.25;5053244;28;20487;-54
2022/06/29 07:38:05;;;;;;;0.73;0.67;;;;;;;24.80;57.86;100000.41;5053277;28;20450;-54
2022/06/29 07:40:33;;;;;;;0.40;0.20;;;;;;;24.90;57.90;100001.28;5053045;28;20487;-54
2022/06/29 07:42:59;;;;;;;0.40;0.20;;;;;;;24.73;56.94;99991.97;5052465;28;20855;-55
2022/06/29 07:45:26;;;;;;;0.40;0.20;;;;;;;24.64;56.36;99990.09;5048715;28;20941;-54
2022/06/29 07:47:59;;;;;;;1.27;1.03;;;;;;;24.62;56.53;99986.66;5032962;28;20509;-54
2022/06/29 07:50:26;;;;;;;0.40;0.20;;;;;;;24.91;56.60;99989.41;5051371;28;20457;-54
2022/06/29 07:52:53;;;;;;;0.40;0.20;;;;;;;24.86;56.01;99978.09;5050300;28;20481;-54
2022/06/29 07:55:19;;;;;;;0.40;0.20;;;;;;;24.95;56.18;99984.56;5051594;28;20455;-54
2022/06/29 07:57:46;;;;;;;0.50;0.30;;;;;;;25.37;56.31;99985.13;5052540;28;20454;-54
2022/06/29 08:00:13;;;;;;;0.40;0.20;;;;;;;25.28;54.61;99980.53;5047055;28;20448;-54
2022/06/29 08:02:39;;;;;;;0.40;0.20;;;;;;;25.09;55.78;99978.72;5045313;28;20466;-53
2022/06/29 08:05:06;;;;;;;0.40;0.20;;;;;;;25.47;55.47;99980.50;5052625;28;20447;-54
2022/06/29 08:07:33;;;;;;;0.40;0.20;;;;;;;25.96;53.80;99975.78;5053130;28;20539;-55
2022/06/29 08:10:01;;;;;;;0.40;0.20;;;;;;;26.27;53.50;99971.75;5052199;28;20454;-55
2022/06/29 08:12:27;;;;;;;0.50;0.30;;;;;;;26.64;52.65;99968.09;5052494;28;20517;-55
2022/06/29 08:14:54;;;;;;;0.40;0.30;;;;;;;26.83;51.65;99970.69;5045361;28;21009;-54
2022/06/29 08:17:21;;;;;;;0.60;0.60;;;;;;;26.97;51.87;99971.13;5045760;28;20964;-54
2022/06/29 08:19:47;;;;;;;1.33;1.33;;;;;;;26.35;52.36;99961.97;5044652;28;20479;-55
2022/06/29 08:22:14;;;;;;;0.40;0.30;;;;;;;26.50;51.81;99969.50;5046161;28;20457;-55
2022/06/29 08:24:40;;;;;;;0.40;0.20;;;;;;;26.01;53.07;99968.00;5042698;28;20450;-54
2022/06/29 08:27:07;;;;;;;0.40;0.30;;;;;;;26.32;53.21;99974.03;5042912;28;20467;-54
2022/06/29 08:29:54;;;;;;;0.40;0.20;;;;;;;25.95;54.25;99966.75;5052045;28;20454;-53
2022/06/29 08:32:20;;;;;;;0.40;0.20;;;;;;;25.75;53.63;99972.41;5052165;28;20470;-54
2022/06/29 08:34:47;;;;;;;0.40;0.20;;;;;;;25.68;54.29;99970.31;5052119;28;20932;-54
2022/06/29 08:37:13;;;;;;;0.40;0.30;;;;;;;25.69;55.45;99973.88;5048121;28;20458;-54
2022/06/29 08:39:40;;;;;;;0.40;0.40;;;;;;;26.24;53.68;99972.06;5042804;28;20447;-54
2022/06/29 08:42:07;;;;;;;0.40;0.20;;;;;;;26.24;53.50;99971.19;5051763;28;20943;-54
2022/06/29 08:44:39;;;;;;;0.40;0.20;;;;;;;25.78;54.29;99969.44;5047482;22;20504;-79
2022/06/29 08:47:10;;;;;;;0.40;0.30;;;;;;;25.93;53.77;99959.75;5039277;28;20441;-79
2022/06/29 08:49:37;;;;;;;0.40;0.30;;;;;;;25.96;53.67;99968.47;5055710;28;20453;-79
2022/06/29 08:52:05;;;;;;;0.40;0.30;;;;;;;26.35;55.12;99968.28;5053273;28;20469;-79
2022/06/29 08:54:36;;;;;;;0.40;0.20;;;;;;;26.66;52.89;99968.81;5050719;28;20481;-79
2022/06/29 08:57:03;;;;;;;0.57;0.57;;;;;;;26.72;52.76;99983.69;5053673;28;20479;-79
2022/06/29 08:59:33;;;;;;;0.40;0.20;;;;;;;26.53;52.27;99982.81;5054851;28;20450;-79
2022/06/29 09:02:20;;;;;;;0.40;0.27;;;;;;;26.57;51.93;99983.34;5033513;28;20833;-79
2022/06/29 09:04:46;;;;;;;0.40;0.27;;;;;;;26.28;51.71;99983.50;5054723;28;20490;-79
2022/06/29 09:07:12;;;;;;;0.50;0.40;;;;;;;26.14;52.50;99982.16;5054288;28;20455;-79
2022/06/29 09:09:59;;;;;;;0.50;0.47;;;;;;;26.57;52.46;99981.50;5053705;28;20505;-79
2022/06/29 09:12:26;;;;;;;0.40;0.20;;;;;;;26.34;51.66;99987.50;5052883;28;20526;-79
2022/06/29 09:14:53;;;;;;;0.40;0.20;;;;;;;26.65;51.29;99985.31;5054810;28;20475;-79
2022/06/29 09:17:20;;;;;;;0.40;0.30;;;;;;;26.52;51.61;99985.69;5053462;28;20494;-80
2022/06/29 09:19:48;;;;;;;0.40;0.20;;;;;;;27.06;52.01;99978.44;5055034;28;20502;-79
2022/06/29 09:22:29;;;;;;;0.40;0.30;;;;;;;26.59;50.75;99973.19;5053419;28;20454;-79
2022/06/29 09:24:55;;;;;;;0.40;0.30;;;;;;;26.74;51.12;99963.44;5043189;28;20473;-79
2022/06/29 09:27:43;;;;;;;42.40;2.00;;;;;;;27.31;49.82;99977.63;5044401;28;20466;-80
2022/06/29 09:30:26;;;;;;;0.40;0.30;;;;;;;27.55;49.94;99984.25;5053719;28;20457;-79
2022/06/29 09:33:02;;;;;;;0.40;0.30;;;;;;;27.27;50.58;99978.94;5057753;28;20962;-80
2022/06/29 09:35:29;;;;;;;0.40;0.20;;;;;;;27.59;49.25;99972.00;5058581;28;20460;-80
2022/06/29 09:38:18;;;;;;;1.40;1.40;;;;;;;28.09;48.88;99980.31;5057058;28;20487;-80
2022/06/29 09:41:15;;;;;;;0.40;0.27;;;;;;;28.29;49.57;99976.34;5060961;28;20533;-80
2022/06/29 09:43:44;;;;;;;1.07;0.97;;;;;;;28.04;47.75;99982.69;5057496;28;20502;-80
2022/06/29 09:46:12;;;;;;;0.40;0.20;;;;;;;27.66;49.47;99978.56;5056759;28;20936;-80
2022/06/29 09:48:40;;;;;;;0.40;0.30;;;;;;;27.52;49.68;99982.69;5056267;28;20797;-80
2022/06/29 09:54:06;;;;;;;0.40;0.30;;;;;;;27.98;49.94;99980.63;5054362;28;20498;-80
2022/06/29 09:56:33;;;;;;;0.40;0.30;;;;;;;27.56;48.35;99978.66;5056641;28;20561;-80
2022/06/29 09:59:02;;;;;;;0.97;0.83;;;;;;;27.20;48.87;99969.69;5059897;28;20541;-80
2022/06/29 10:04:24;;;;;;;0.40;0.20;;;;;;;27.66;50.23;99964.91;4987644;28;20470;-79
2022/06/29 10:06:52;;;;;;;0.70;0.70;;;;;;;27.73;50.74;99966.84;5057611;28;20847;-78
2022/06/29 10:09:19;;;;;;;1.10;0.63;;;;;;;28.03;49.26;99967.31;5028762;28;20456;-79
2022/06/29 10:15:09;;;;;;;0.40;0.20;;;;;;;27.93;48.97;99967.44;5028893;28;20920;-79
2022/06/29 10:18:10;;;;;;;0.40;0.30;;;;;;;28.20;48.95;99970.97;5055491;28;20497;-79
2022/06/29 10:20:43;;;;;;;0.40;0.20;;;;;;;28.33;49.43;99963.19;5055281;28;20812;-79
2022/06/29 10:23:43;;;;;;;0.40;0.27;;;;;;;28.24;51.13;99958.72;5047192;28;20477;-79
2022/06/29 10:26:32;;;;;;;0.40;0.30;;;;;;;28.81;50.02;99967.94;5053158;28;20450;-79
2022/06/29 10:29:05;;;;;;;0.40;0.23;;;;;;;28.75;49.70;99967.75;5050351;28;20826;-79
2022/06/29 10:31:53;;;;;;;0.40;0.27;;;;;;;28.36;49.86;99964.72;5055393;28;20546;-79
2022/06/29 10:34:32;;;;;;;0.40;0.30;;;;;;;28.80;49.08;99968.09;5029267;28;20557;-79
2022/06/29 10:37:05;;;;;;;0.50;0.47;;;;;;;28.22;49.53;99958.00;5054541;28;20589;-79
2022/06/29 10:39:44;;;;;;;0.40;0.30;;;;;;;28.66;50.13;99964.16;5055191;28;20530;-79
2022/06/29 10:45:18;;;;;;;0.40;0.27;;;;;;;28.94;48.86;99958.41;5054761;28;20459;-79
2022/06/29 10:47:54;;;;;;;0.57;0.57;;;;;;;29.12;49.19;99957.19;5055394;28;20446;-79
2022/06/29 10:50:28;;;;;;;1.53;0.77;;;;;;;29.05;49.52;99958.03;5053801;28;20436;-79
2022/06/29 10:53:04;;;;;;;0.40;0.20;;;;;;;28.53;50.61;99959.16;5053206;28;20497;-79
2022/06/29 10:55:32;;;;;;;0.40;0.30;;;;;;;28.85;50.65;99966.56;5041668;28;20542;-79
2022/06/29 10:57:58;;;;;;;0.40;0.30;;;;;;;28.68;50.68;99951.16;5056831;28;20449;-79
2022/06/29 11:00:28;;;;;;;0.40;0.30;;;;;;;29.01;50.45;99960.28;5034242;28;20447;-79
2022/06/29 11:02:54;;;;;;;0.40;0.30;;;;;;;28.31;50.57;99962.50;5053797;28;20445;-79
2022/06/29 11:05:21;;;;;;;0.40;0.30;;;;;;;28.60;50.03;99957.44;5035685;28;20433;-80
2022/06/29 11:13:24;;;;;;;0.40;0.30;;;;;;;28.60;51.39;99954.72;5054747;28;20426;-79
2022/06/29 11:15:53;;;;;;;0.40;0.20;;;;;;;28.97;49.91;99958.91;5054588;28;20451;-79
2022/06/29 11:18:30;;;;;;;0.40;0.20;;;;;;;29.07;50.55;99945.91;5053245;28;20478;-79
2022/06/29 11:21:03;;;;;;;0.40;0.20;;;;;;;29.25;48.41;99948.47;5053440;28;20961;-79
2022/06/29 11:23:34;;;;;;;0.40;0.30;;;;;;;29.46;47.92;99947.91;5047426;28;20442;-79
2022/06/29 11:26:03;;;;;;;0.50;0.47;;;;;;;29.40;47.84;99945.88;5050797;28;20424;-79
2022/06/29 11:28:31;;;;;;;0.40;0.30;;;;;;;29.52;47.82;99933.56;5045644;28;20633;-79
2022/06/29 11:31:12;;;;;;;0.40;0.30;;;;;;;29.25;48.00;99934.78;5053816;28;20481;-79
2022/06/29 11:33:49;;;;;;;0.40;0.30;;;;;;;28.98;47.36;99937.88;5053039;28;20457;-79
2022/06/29 11:36:18;;;;;;;0.40;0.30;;;;;;;28.96;48.48;99937.19;5054323;28;20440;-79
2022/06/29 11:38:49;;;;;;;7.17;1.03;;;;;;;29.32;46.91;99934.94;5053204;28;20431;-79
2022/06/29 11:41:25;;;;;;;0.40;0.30;;;;;;;29.38;47.17;99926.03;5053733;28;20450;-80
2022/06/29 11:44:04;;;;;;;0.50;0.30;;;;;;;29.23;46.50;99923.16;5054161;28;20517;-80
2022/06/29 11:46:37;;;;;;;0.57;0.57;;;;;;;29.20;45.54;99923.50;5055548;28;20521;-80
2022/06/29 11:52:03;;;;;;;0.40;0.30;;;;;;;28.91;47.50;99924.00;5051001;28;20562;-79
2022/06/29 11:55:00;;;;;;;7.53;1.37;;;;;;;28.65;48.02;99926.03;5048796;28;20846;-79
2022/06/29 11:57:27;;;;;;;0.40;0.30;;;;;;;28.59;47.98;99913.84;5021331;28;20495;-79
2022/06/29 12:00:06;;;;;;;0.40;0.20;;;;;;;28.91;48.49;99913.03;5053587;28;20454;-79
2022/06/29 12:02:34;;;;;;;0.40;0.30;;;;;;;29.69;46.66;99913.31;5054152;28;20455;-80